Time;durP1;ratioP1;P1;durP2;ratioP2;P2;SDS_P1;SDS_P2;PMS_P1;PMS_P2;Temp;Humidity;BMP_temperature;BMP_pressure;BME280_temperature;BME280_humidity;BME280_pressure;Samples;Min_cycle;Max_cycle;Signal;HPM_P1;HPM_P2
2022/04/08 00:01:35;;;;;;;8.55;1.30;;;8.00;81.30;;;;;;5133595;28;20031;-69
2022/04/08 00:04:01;;;;;;;7.03;1.00;;;8.00;81.10;;;;;;5133595;28;20049;-68
2022/04/08 00:06:26;;;;;;;7.00;1.00;;;8.00;80.80;;;;;;5133467;28;20028;-67
2022/04/08 00:08:52;;;;;;;7.93;1.00;;;8.00;80.50;;;;;;5133512;28;20036;-67
2022/04/08 00:11:18;;;;;;;9.48;1.27;;;8.00;80.30;;;;;;5133528;28;20023;-67
2022/04/08 00:13:44;;;;;;;9.80;1.63;;;8.00;79.80;;;;;;5133492;28;20019;-67
2022/04/08 00:16:10;;;;;;;3.55;1.10;;;8.00;79.70;;;;;;5133497;28;20103;-68
2022/04/08 00:18:38;;;;;;;5.55;1.13;;;8.00;78.60;;;;;;5133483;28;20053;-67
2022/04/08 00:21:05;;;;;;;7.50;1.33;;;8.00;78.30;;;;;;5133445;28;20084;-67
2022/04/08 00:23:31;;;;;;;9.45;1.95;;;8.00;77.90;;;;;;5133765;28;20054;-67
2022/04/08 00:25:57;;;;;;;7.45;1.08;;;8.00;78.20;;;;;;5137241;28;20027;-67
2022/04/08 00:28:22;;;;;;;9.30;1.33;;;8.00;78.20;;;;;;5137190;28;20020;-67
2022/04/08 00:30:48;;;;;;;7.45;1.13;;;7.90;78.20;;;;;;5137241;28;20043;-67
2022/04/08 00:33:14;;;;;;;6.55;1.20;;;7.90;77.60;;;;;;5137198;28;20054;-67
2022/04/08 00:35:39;;;;;;;8.32;1.20;;;7.90;77.70;;;;;;5137120;28;20392;-67
2022/04/08 00:38:06;;;;;;;8.05;1.30;;;7.90;78.00;;;;;;5136874;28;20063;-68
2022/04/08 00:40:33;;;;;;;6.32;1.30;;;7.90;77.80;;;;;;5137082;28;20020;-68
2022/04/08 00:42:59;;;;;;;9.88;1.10;;;7.90;77.90;;;;;;5137023;28;20024;-68
2022/04/08 00:45:25;;;;;;;4.63;0.98;;;7.90;77.90;;;;;;5137013;28;20110;-68
2022/04/08 00:47:50;;;;;;;5.07;1.05;;;7.90;77.60;;;;;;5136933;28;20035;-68
2022/04/08 00:50:19;;;;;;;13.45;1.90;;;7.90;77.90;;;;;;5136950;28;20083;-67
2022/04/08 00:52:46;;;;;;;5.78;1.35;;;7.90;77.70;;;;;;5136826;28;20023;-68
2022/04/08 00:55:12;;;;;;;3.95;1.05;;;7.90;77.90;;;;;;5136909;28;20044;-67
2022/04/08 00:57:38;;;;;;;8.73;1.17;;;7.90;77.60;;;;;;5136842;28;20026;-67
2022/04/08 01:00:09;;;;;;;8.82;1.20;;;7.90;77.30;;;;;;5136680;28;20147;-67
2022/04/08 01:02:35;;;;;;;12.93;1.85;;;7.80;77.40;;;;;;5136776;28;20075;-67
2022/04/08 01:05:01;;;;;;;9.10;1.48;;;7.90;77.60;;;;;;5136570;28;20028;-67
2022/04/08 01:07:27;;;;;;;8.30;1.00;;;7.90;77.20;;;;;;5136487;28;20027;-67
2022/04/08 01:09:54;;;;;;;8.68;1.45;;;7.90;77.30;;;;;;5136499;28;20052;-68
2022/04/08 01:12:19;;;;;;;6.57;1.25;;;7.80;76.80;;;;;;5136511;28;20079;-68
2022/04/08 01:14:45;;;;;;;6.10;1.02;;;7.80;77.10;;;;;;5135474;28;20023;-68
2022/04/08 01:17:11;;;;;;;7.68;0.95;;;7.80;76.90;;;;;;5136343;28;20028;-68
2022/04/08 01:19:37;;;;;;;11.27;1.45;;;7.80;76.80;;;;;;5136265;28;20019;-67
2022/04/08 01:22:03;;;;;;;8.40;1.40;;;7.80;76.70;;;;;;5136253;28;20039;-68
2022/04/08 01:24:33;;;;;;;6.63;1.15;;;7.80;76.40;;;;;;5135186;28;20087;-67
2022/04/08 01:26:58;;;;;;;5.95;1.23;;;7.80;76.20;;;;;;5136166;28;20114;-67
2022/04/08 01:29:24;;;;;;;5.18;1.00;;;7.80;76.30;;;;;;5136059;28;20016;-68
2022/04/08 01:31:49;;;;;;;6.53;1.00;;;7.70;76.00;;;;;;5136084;28;20035;-67
2022/04/08 01:34:15;;;;;;;4.28;1.25;;;7.70;75.40;;;;;;5136007;28;20035;-67
2022/04/08 01:36:40;;;;;;;5.97;1.45;;;7.70;75.80;;;;;;5133874;28;20027;-67
2022/04/08 01:39:06;;;;;;;9.82;1.30;;;7.70;76.00;;;;;;5135925;28;20032;-68
2022/04/08 01:41:32;;;;;;;7.03;1.20;;;7.70;76.00;;;;;;5135917;28;20053;-68
2022/04/08 01:43:58;;;;;;;4.88;1.20;;;7.70;76.20;;;;;;5135005;28;20024;-67
2022/04/08 01:46:24;;;;;;;12.93;2.22;;;7.70;75.50;;;;;;5135704;28;20034;-67
2022/04/08 01:48:54;;;;;;;7.15;1.60;;;7.70;75.60;;;;;;5135729;28;20023;-67
2022/04/08 01:51:21;;;;;;;8.30;1.70;;;7.70;75.70;;;;;;5135891;28;20099;-67
2022/04/08 01:53:47;;;;;;;11.60;1.45;;;7.70;75.80;;;;;;5135668;28;20024;-68
2022/04/08 01:56:13;;;;;;;5.63;1.17;;;7.70;75.70;;;;;;5135632;28;20510;-67
2022/04/08 01:58:39;;;;;;;7.57;1.05;;;7.70;75.50;;;;;;5135559;28;20028;-68
2022/04/08 02:01:05;;;;;;;8.20;1.10;;;7.70;75.60;;;;;;5134513;28;20027;-67
2022/04/08 02:03:31;;;;;;;9.75;1.88;;;7.70;75.60;;;;;;5135456;28;20028;-68
2022/04/08 02:05:56;;;;;;;8.90;1.38;;;7.70;75.40;;;;;;5135319;28;20110;-67
2022/04/08 02:08:22;;;;;;;6.07;1.33;;;7.60;75.10;;;;;;5135333;28;20036;-67
2022/04/08 02:10:48;;;;;;;8.27;1.13;;;7.60;75.30;;;;;;5135409;28;20054;-67
2022/04/08 02:13:13;;;;;;;8.13;0.95;;;7.60;75.10;;;;;;5135232;28;20024;-67
2022/04/08 02:15:40;;;;;;;5.85;0.73;;;7.60;75.30;;;;;;5135203;28;20020;-68
2022/04/08 02:18:06;;;;;;;5.38;0.63;;;7.60;75.30;;;;;;5135181;28;20032;-68
2022/04/08 02:20:32;;;;;;;4.38;1.00;;;7.60;75.40;;;;;;5135140;28;20016;-67
2022/04/08 02:22:59;;;;;;;8.25;1.10;;;7.60;75.50;;;;;;5135090;28;20020;-68
2022/04/08 02:25:29;;;;;;;8.48;1.33;;;7.60;75.60;;;;;;5134944;28;20053;-68
2022/04/08 02:27:55;;;;;;;6.97;1.17;;;7.50;75.60;;;;;;5134883;28;20024;-67
2022/04/08 02:30:21;;;;;;;10.50;1.23;;;7.60;75.80;;;;;;5134904;28;20083;-68
2022/04/08 02:32:46;;;;;;;6.32;1.30;;;7.50;75.70;;;;;;5134876;28;20012;-68
2022/04/08 02:35:12;;;;;;;8.40;1.52;;;7.50;75.80;;;;;;5134805;28;20043;-67
2022/04/08 02:37:39;;;;;;;9.88;1.27;;;7.50;76.80;;;;;;5133708;28;20063;-67
2022/04/08 02:40:05;;;;;;;9.48;2.22;;;7.50;76.10;;;;;;5134742;28;20068;-67
2022/04/08 02:42:31;;;;;;;4.80;1.27;;;7.50;75.90;;;;;;5134689;28;20024;-67
2022/04/08 02:44:57;;;;;;;7.72;1.30;;;7.50;75.60;;;;;;5134752;28;20024;-67
2022/04/08 02:47:23;;;;;;;3.85;0.88;;;7.50;75.40;;;;;;5133373;28;20052;-67
2022/04/08 02:49:49;;;;;;;6.57;1.35;;;7.50;75.30;;;;;;5134583;28;20063;-68
2022/04/08 02:52:15;;;;;;;6.35;1.33;;;7.50;75.60;;;;;;5134626;28;20024;-68
2022/04/08 02:54:40;;;;;;;9.52;1.08;;;7.50;75.40;;;;;;5134432;28;20024;-68
2022/04/08 02:57:06;;;;;;;3.47;1.02;;;7.40;75.40;;;;;;5134401;28;20034;-67
2022/04/08 02:59:31;;;;;;;6.28;1.55;;;7.40;75.70;;;;;;5134362;28;20030;-67
2022/04/08 03:01:57;;;;;;;6.60;1.02;;;7.40;75.80;;;;;;5134331;28;20047;-67
2022/04/08 03:04:25;;;;;;;9.75;1.65;;;7.30;75.60;;;;;;5134298;28;20019;-67
2022/04/08 03:06:51;;;;;;;8.55;1.17;;;7.40;75.80;;;;;;5134215;28;20023;-68
2022/04/08 03:09:17;;;;;;;7.00;1.30;;;7.30;75.40;;;;;;5134212;28;20030;-67
2022/04/08 03:11:42;;;;;;;3.25;0.90;;;7.30;75.50;;;;;;5133378;28;20032;-68
2022/04/08 03:14:08;;;;;;;6.95;1.10;;;7.30;75.60;;;;;;5134127;28;20084;-67
2022/04/08 03:16:33;;;;;;;8.80;1.10;;;7.40;75.40;;;;;;5134070;28;20042;-67
2022/04/08 03:18:59;;;;;;;5.22;0.90;;;7.30;75.20;;;;;;5134189;28;20028;-67
2022/04/08 03:21:27;;;;;;;6.90;1.00;;;7.20;74.70;;;;;;5134077;28;20028;-68
2022/04/08 03:23:53;;;;;;;5.93;1.17;;;7.20;74.90;;;;;;5134030;28;20059;-67
2022/04/08 03:26:19;;;;;;;5.05;0.98;;;7.20;75.10;;;;;;5133953;28;20031;-67
2022/04/08 03:28:44;;;;;;;7.50;1.38;;;7.10;75.40;;;;;;5132857;28;20091;-67
2022/04/08 03:31:11;;;;;;;5.15;1.17;;;7.10;75.20;;;;;;5133938;28;20044;-67
2022/04/08 03:33:38;;;;;;;6.15;1.10;;;7.10;75.40;;;;;;5133926;28;20016;-68
2022/04/08 03:36:07;;;;;;;4.35;0.82;;;7.10;75.50;;;;;;5133839;28;20024;-67
2022/04/08 03:38:33;;;;;;;10.05;1.00;;;7.10;75.70;;;;;;5133641;28;20055;-67
2022/04/08 03:40:59;;;;;;;6.35;1.05;;;7.00;76.00;;;;;;5133806;28;20359;-67
2022/04/08 03:43:25;;;;;;;6.80;1.05;;;7.00;76.20;;;;;;5133768;28;20040;-67
2022/04/08 03:45:51;;;;;;;4.50;1.00;;;7.00;77.20;;;;;;5133661;28;20047;-67
2022/04/08 03:48:16;;;;;;;5.40;1.42;;;7.00;76.70;;;;;;5133729;28;20058;-68
2022/04/08 03:50:42;;;;;;;4.85;1.10;;;6.90;76.70;;;;;;5132730;28;20024;-67
2022/04/08 03:53:10;;;;;;;4.50;1.40;;;6.90;76.90;;;;;;5133691;28;20032;-67
2022/04/08 03:55:36;;;;;;;4.28;1.20;;;6.90;78.00;;;;;;5133686;28;20015;-68
2022/04/08 03:58:02;;;;;;;5.20;1.10;;;6.80;77.20;;;;;;5133656;28;20166;-67
2022/04/08 04:00:28;;;;;;;4.28;0.95;;;6.80;77.50;;;;;;5137287;28;20038;-67
2022/04/08 04:02:53;;;;;;;3.10;1.35;;;6.70;77.80;;;;;;5137926;28;20031;-68
2022/04/08 04:05:19;;;;;;;10.38;1.92;;;6.70;78.00;;;;;;5136707;28;20061;-68
2022/04/08 04:07:44;;;;;;;7.00;1.60;;;6.60;78.60;;;;;;5137689;28;20024;-67
2022/04/08 04:10:14;;;;;;;10.52;1.83;;;6.60;78.70;;;;;;5137664;28;20039;-67
2022/04/08 04:12:41;;;;;;;4.60;1.50;;;6.60;79.00;;;;;;5137824;28;20012;-67
2022/04/08 04:15:08;;;;;;;6.47;1.40;;;6.50;79.10;;;;;;5137595;28;20016;-67
2022/04/08 04:17:33;;;;;;;9.65;1.70;;;6.50;79.10;;;;;;5137552;28;20035;-67
2022/04/08 04:19:59;;;;;;;6.65;2.17;;;6.50;79.30;;;;;;5137590;28;20042;-67
2022/04/08 04:22:26;;;;;;;6.68;1.60;;;6.50;79.20;;;;;;5137452;28;20036;-67
2022/04/08 04:24:51;;;;;;;4.85;1.90;;;6.50;79.60;;;;;;5137419;28;20016;-67
2022/04/08 04:27:17;;;;;;;7.90;1.55;;;6.40;79.50;;;;;;5137283;28;20035;-67
2022/04/08 04:29:42;;;;;;;7.55;1.60;;;6.40;79.70;;;;;;5137212;28;20028;-67
2022/04/08 04:32:08;;;;;;;10.07;2.10;;;6.30;80.00;;;;;;5137248;28;20047;-67
2022/04/08 04:34:36;;;;;;;11.73;2.13;;;6.30;80.10;;;;;;5137223;28;20051;-67
2022/04/08 04:37:03;;;;;;;9.55;1.75;;;6.30;80.50;;;;;;5137014;28;20046;-68
2022/04/08 04:39:28;;;;;;;8.43;2.00;;;6.30;80.60;;;;;;5137089;28;20031;-68
2022/04/08 04:41:54;;;;;;;9.55;2.05;;;6.30;80.60;;;;;;5137182;28;20079;-68
2022/04/08 04:44:20;;;;;;;6.82;1.75;;;6.30;80.80;;;;;;5137101;28;20429;-67
2022/04/08 04:46:45;;;;;;;7.60;1.70;;;6.30;80.80;;;;;;5136861;28;20031;-68
2022/04/08 04:49:11;;;;;;;8.55;1.83;;;6.20;80.60;;;;;;5136886;28;20023;-67
2022/04/08 04:51:37;;;;;;;9.02;2.03;;;6.20;80.60;;;;;;5136832;28;20023;-67
2022/04/08 04:54:02;;;;;;;8.45;1.90;;;6.20;80.80;;;;;;5136807;28;20049;-67
2022/04/08 04:56:28;;;;;;;6.15;1.48;;;6.20;80.70;;;;;;5135785;28;20019;-67
2022/04/08 04:58:54;;;;;;;5.90;2.03;;;6.10;81.20;;;;;;5136717;28;20081;-67
2022/04/08 05:01:20;;;;;;;7.03;1.52;;;6.10;81.10;;;;;;5136709;28;20022;-67
2022/04/08 05:03:45;;;;;;;7.63;1.45;;;6.10;80.80;;;;;;5136627;28;20442;-67
2022/04/08 05:06:11;;;;;;;5.53;1.38;;;6.10;81.50;;;;;;5135481;28;20028;-67
2022/04/08 05:08:37;;;;;;;7.30;1.40;;;6.00;80.60;;;;;;5136618;28;20023;-67
2022/04/08 05:11:02;;;;;;;6.18;1.83;;;5.90;80.70;;;;;;5136395;28;20123;-67
2022/04/08 05:13:28;;;;;;;5.80;1.58;;;5.90;81.60;;;;;;5136410;28;20024;-67
2022/04/08 05:15:54;;;;;;;5.85;1.73;;;5.80;81.50;;;;;;5135426;28;20030;-67
2022/04/08 05:18:19;;;;;;;10.13;2.30;;;5.80;82.00;;;;;;5136276;28;20042;-67
2022/04/08 05:20:45;;;;;;;7.20;1.60;;;5.80;82.00;;;;;;5136314;28;20028;-67
2022/04/08 05:23:10;;;;;;;7.55;1.77;;;5.80;82.40;;;;;;5136398;28;20561;-67
2022/04/08 05:25:37;;;;;;;5.82;1.83;;;5.80;82.20;;;;;;5136204;28;20024;-67
2022/04/08 05:28:03;;;;;;;8.10;2.03;;;5.80;82.20;;;;;;5136168;28;20031;-67
2022/04/08 05:30:29;;;;;;;4.80;1.80;;;5.80;82.20;;;;;;5136127;28;20043;-67
2022/04/08 05:32:55;;;;;;;4.97;1.95;;;5.80;82.90;;;;;;5136030;28;20032;-68
2022/04/08 05:35:21;;;;;;;4.43;1.60;;;5.80;82.70;;;;;;5136035;28;20020;-67
2022/04/08 05:37:48;;;;;;;8.00;2.15;;;5.80;83.00;;;;;;5135817;28;20036;-68
2022/04/08 05:40:21;;;;;;;6.88;2.28;;;5.80;82.90;;;;;;5135844;28;20022;-68
2022/04/08 05:42:48;;;;;;;5.93;2.10;;;5.90;83.40;;;;;;5136066;28;20020;-67
2022/04/08 05:45:16;;;;;;;6.95;2.22;;;6.00;83.10;;;;;;5135883;27;20081;-68
2022/04/08 05:47:42;;;;;;;3.45;1.85;;;6.00;83.20;;;;;;5135751;28;20035;-68
2022/04/08 05:50:08;;;;;;;6.07;2.30;;;6.10;83.30;;;;;;5135766;28;20016;-67
2022/04/08 05:52:34;;;;;;;7.53;2.78;;;6.10;83.40;;;;;;5135709;28;20030;-67
2022/04/08 05:55:00;;;;;;;5.35;2.13;;;6.20;83.30;;;;;;5135608;28;20016;-67
2022/04/08 05:57:26;;;;;;;5.55;2.65;;;6.20;83.80;;;;;;5135570;28;20024;-66
2022/04/08 05:59:59;;;;;;;7.60;2.50;;;6.20;83.60;;;;;;5135450;28;20515;-66
2022/04/08 06:02:24;;;;;;;5.82;2.42;;;6.30;83.20;;;;;;5135541;28;20023;-67
2022/04/08 06:04:50;;;;;;;5.68;2.72;;;6.30;82.90;;;;;;5135448;28;20057;-67
2022/04/08 06:07:15;;;;;;;5.53;2.03;;;6.30;82.90;;;;;;5134350;28;20035;-67
2022/04/08 06:09:41;;;;;;;6.13;2.40;;;6.30;82.50;;;;;;5135363;28;20052;-67
2022/04/08 06:12:07;;;;;;;7.88;2.80;;;6.40;82.40;;;;;;5135275;28;20023;-67
2022/04/08 06:14:33;;;;;;;9.70;2.70;;;6.40;82.20;;;;;;5135345;28;20023;-67
2022/04/08 06:16:58;;;;;;;9.45;3.40;;;6.40;82.20;;;;;;5135259;28;20031;-67
2022/04/08 06:19:24;;;;;;;4.70;2.58;;;6.50;82.20;;;;;;5135052;28;20059;-69
2022/04/08 06:21:49;;;;;;;9.13;2.70;;;6.50;82.20;;;;;;5134556;28;20087;-69
2022/04/08 06:24:15;;;;;;;4.88;2.22;;;6.50;82.00;;;;;;5135011;28;20057;-67
2022/04/08 06:26:41;;;;;;;6.25;2.67;;;6.50;81.70;;;;;;5134915;28;20035;-67
2022/04/08 06:29:08;;;;;;;6.68;2.35;;;6.50;82.30;;;;;;5134876;28;20024;-67
2022/04/08 06:31:33;;;;;;;7.10;2.72;;;6.50;82.40;;;;;;5134932;28;20019;-67
2022/04/08 06:34:00;;;;;;;12.82;5.47;;;6.60;82.60;;;;;;5133943;28;20503;-66
2022/04/08 06:36:27;;;;;;;10.95;5.28;;;6.60;83.20;;;;;;5134737;28;20031;-67
2022/04/08 06:38:53;;;;;;;10.55;4.22;;;6.60;83.00;;;;;;5134717;28;20164;-67
2022/04/08 06:41:18;;;;;;;12.52;4.35;;;6.70;82.00;;;;;;5134843;28;20032;-67
2022/04/08 06:43:44;;;;;;;7.38;4.07;;;6.70;82.20;;;;;;5134662;28;20042;-67
2022/04/08 06:46:10;;;;;;;8.70;4.72;;;6.70;82.10;;;;;;5134561;28;20035;-67
2022/04/08 06:48:36;;;;;;;8.30;4.00;;;6.80;81.70;;;;;;5133588;28;20111;-67
2022/04/08 06:51:04;;;;;;;9.50;3.85;;;6.80;81.70;;;;;;5134504;28;20028;-67
2022/04/08 06:53:30;;;;;;;7.10;3.70;;;6.90;81.80;;;;;;5134527;28;20023;-67
2022/04/08 06:55:56;;;;;;;6.72;3.25;;;7.00;82.30;;;;;;5134437;28;20024;-67
2022/04/08 06:58:26;;;;;;;8.18;3.55;;;7.10;81.20;;;;;;5134409;28;20034;-67
2022/04/08 07:00:54;;;;;;;9.57;3.85;;;7.10;80.30;;;;;;5133469;28;20034;-69
2022/04/08 07:03:21;;;;;;;8.27;2.85;;;7.10;80.00;;;;;;5134460;28;20028;-69
2022/04/08 07:05:47;;;;;;;8.00;3.42;;;7.10;79.70;;;;;;5134230;28;20034;-69
2022/04/08 07:08:12;;;;;;;8.80;3.60;;;7.20;79.40;;;;;;5134274;28;20027;-67
2022/04/08 07:10:41;;;;;;;9.10;3.85;;;7.20;79.90;;;;;;5133949;28;20028;-67
2022/04/08 07:13:07;;;;;;;12.50;4.28;;;7.20;79.90;;;;;;5134267;28;20050;-67
2022/04/08 07:15:33;;;;;;;5.75;3.55;;;7.30;79.70;;;;;;5134175;28;20035;-67
2022/04/08 07:17:59;;;;;;;11.50;4.90;;;7.30;79.10;;;;;;5134139;28;20023;-67
2022/04/08 07:20:25;;;;;;;9.23;4.40;;;7.30;79.20;;;;;;5134065;28;20027;-67
2022/04/08 07:22:51;;;;;;;6.70;3.55;;;7.30;79.40;;;;;;5134024;28;20024;-67
2022/04/08 07:25:18;;;;;;;7.95;3.83;;;7.40;78.70;;;;;;5132948;28;20023;-67
2022/04/08 07:27:49;;;;;;;7.32;3.97;;;7.40;78.70;;;;;;5133807;28;20032;-67
2022/04/08 07:30:17;;;;;;;7.03;3.63;;;7.40;80.40;;;;;;5132870;28;20046;-67
2022/04/08 07:32:44;;;;;;;8.52;4.55;;;7.50;79.70;;;;;;5133728;28;20023;-67
2022/04/08 07:35:10;;;;;;;13.43;7.03;;;7.50;79.70;;;;;;5133278;28;20031;-69
2022/04/08 07:37:36;;;;;;;8.27;4.20;;;7.60;79.20;;;;;;5133646;28;20044;-69
2022/04/08 07:40:09;;;;;;;10.63;5.63;;;7.50;78.80;;;;;;5133866;28;20028;-69
2022/04/08 07:42:36;;;;;;;12.07;6.13;;;7.60;79.00;;;;;;5133874;28;20028;-69
2022/04/08 07:45:03;;;;;;;16.45;6.35;;;7.50;78.80;;;;;;5133765;28;20020;-69
2022/04/08 07:47:29;;;;;;;10.63;6.18;;;7.60;78.60;;;;;;5133689;28;20034;-69
2022/04/08 07:50:03;;;;;;;11.07;6.53;;;7.60;79.60;;;;;;5133723;28;20031;-69
2022/04/08 07:52:29;;;;;;;10.32;6.10;;;7.60;79.10;;;;;;5133737;28;20011;-69
2022/04/08 07:54:55;;;;;;;11.25;4.45;;;7.70;78.40;;;;;;5132733;28;20024;-69
2022/04/08 07:57:21;;;;;;;9.20;4.55;;;7.70;78.40;;;;;;5133651;28;20024;-69
2022/04/08 07:59:47;;;;;;;8.10;4.32;;;7.80;78.60;;;;;;5132666;28;20099;-69
2022/04/08 08:02:13;;;;;;;9.60;4.38;;;7.80;78.90;;;;;;5133674;28;20031;-69
2022/04/08 08:04:39;;;;;;;9.38;4.53;;;7.80;77.40;;;;;;5133629;28;20023;-69
2022/04/08 08:07:06;;;;;;;7.80;4.10;;;7.80;77.90;;;;;;5133506;28;20050;-69
2022/04/08 08:09:33;;;;;;;7.32;3.90;;;7.90;77.60;;;;;;5133612;28;20042;-67
2022/04/08 08:11:59;;;;;;;8.40;4.28;;;7.90;77.10;;;;;;5133532;28;20030;-67
2022/04/08 08:14:25;;;;;;;7.25;3.83;;;7.90;76.20;;;;;;5133524;28;20020;-67
2022/04/08 08:16:50;;;;;;;8.02;4.22;;;7.80;75.60;;;;;;5133340;28;20020;-67
2022/04/08 08:19:16;;;;;;;7.88;3.90;;;7.80;76.10;;;;;;5133457;28;20035;-67
2022/04/08 08:21:41;;;;;;;9.05;4.72;;;7.90;75.70;;;;;;5133418;28;20139;-69
2022/04/08 08:24:08;;;;;;;8.27;4.55;;;7.90;75.30;;;;;;5133342;28;20055;-69
2022/04/08 08:26:33;;;;;;;8.90;4.10;;;7.90;75.80;;;;;;5133310;28;20032;-67
2022/04/08 08:29:00;;;;;;;6.65;3.65;;;8.00;76.50;;;;;;5133291;28;20023;-67
2022/04/08 08:31:25;;;;;;;11.55;3.88;;;8.00;76.40;;;;;;5132336;28;20020;-67
2022/04/08 08:33:51;;;;;;;9.48;3.55;;;8.00;76.20;;;;;;5133289;28;20030;-67
2022/04/08 08:36:16;;;;;;;10.85;4.10;;;8.10;75.30;;;;;;5132294;28;20032;-67
2022/04/08 08:38:43;;;;;;;8.20;3.80;;;8.10;74.90;;;;;;5133155;28;20082;-67
2022/04/08 08:41:09;;;;;;;7.07;3.10;;;8.10;72.90;;;;;;5133422;28;20023;-69
2022/04/08 08:43:36;;;;;;;6.65;3.58;;;8.10;73.50;;;;;;5132335;28;20035;-69
2022/04/08 08:46:07;;;;;;;6.30;2.95;;;8.10;73.50;;;;;;5135796;28;20030;-69
2022/04/08 08:48:37;;;;;;;7.47;3.05;;;8.20;73.70;;;;;;5137027;27;20087;-69
2022/04/08 08:51:05;;;;;;;8.60;3.00;;;8.20;73.50;;;;;;5135927;28;20031;-69
2022/04/08 08:53:32;;;;;;;6.03;2.65;;;8.30;73.00;;;;;;5136899;28;20015;-69
2022/04/08 08:55:58;;;;;;;5.93;2.50;;;8.30;73.30;;;;;;5136827;28;20024;-69
2022/04/08 08:58:23;;;;;;;6.85;3.47;;;8.40;72.90;;;;;;5136699;28;20035;-69
2022/04/08 09:00:49;;;;;;;7.82;3.20;;;8.40;73.30;;;;;;5136725;28;20054;-69
2022/04/08 09:03:15;;;;;;;5.82;2.40;;;8.50;73.60;;;;;;5135735;28;20024;-67
2022/04/08 09:05:47;;;;;;;7.75;2.90;;;8.50;73.30;;;;;;5136610;28;20019;-66
2022/04/08 09:08:13;;;;;;;8.48;3.38;;;8.40;72.30;;;;;;5136641;28;20020;-67
2022/04/08 09:10:45;;;;;;;6.00;2.20;;;8.40;73.40;;;;;;5136564;28;20072;-66
2022/04/08 09:13:11;;;;;;;8.05;2.80;;;8.40;71.40;;;;;;5136514;28;20038;-66
2022/04/08 09:15:39;;;;;;;4.70;2.35;;;8.40;71.30;;;;;;5136441;28;20031;-66
2022/04/08 09:18:08;;;;;;;4.20;2.20;;;8.50;70.30;;;;;;5136385;28;20012;-66
2022/04/08 09:20:52;;;;;;;7.78;3.25;;;8.60;71.00;;;;;;5135245;28;20027;-67
2022/04/08 09:23:20;;;;;;;6.75;2.65;;;8.60;71.90;;;;;;5136411;28;20034;-67
2022/04/08 09:25:48;;;;;;;6.07;3.08;;;8.60;71.60;;;;;;5136128;28;20071;-66
2022/04/08 09:28:15;;;;;;;6.47;2.40;;;8.70;72.70;;;;;;5136163;28;20495;-67
2022/04/08 09:30:55;;;;;;;8.55;3.47;;;8.70;70.00;;;;;;5136158;27;20077;-66
2022/04/08 09:33:23;;;;;;;8.63;3.85;;;8.80;70.30;;;;;;5136167;28;20472;-66
2022/04/08 09:35:50;;;;;;;7.15;3.05;;;8.90;70.80;;;;;;5136073;28;20024;-66
2022/04/08 09:38:20;;;;;;;5.25;2.63;;;8.90;70.20;;;;;;5135807;28;20054;-67
2022/04/08 09:40:47;;;;;;;10.35;4.03;;;8.90;71.10;;;;;;5135947;28;20016;-66
2022/04/08 09:43:13;;;;;;;10.40;5.53;;;8.90;72.00;;;;;;5135910;28;20028;-66
2022/04/08 09:45:39;;;;;;;7.50;2.72;;;8.90;70.10;;;;;;5135796;28;20031;-66
2022/04/08 09:48:07;;;;;;;7.22;3.60;;;8.90;71.20;;;;;;5135803;28;20039;-66
2022/04/08 09:50:34;;;;;;;7.93;3.65;;;8.90;71.00;;;;;;5135777;28;20016;-66
2022/04/08 09:53:02;;;;;;;5.90;3.42;;;8.90;71.00;;;;;;5135804;27;20020;-67
2022/04/08 09:55:29;;;;;;;7.55;3.53;;;8.90;70.20;;;;;;5135693;27;20027;-66
2022/04/08 09:58:00;;;;;;;6.55;3.70;;;8.90;69.40;;;;;;5134713;28;20046;-66
2022/04/08 10:00:27;;;;;;;6.60;2.70;;;8.90;69.40;;;;;;5135660;28;20028;-66
2022/04/08 10:02:58;;;;;;;8.25;2.50;;;8.90;70.20;;;;;;5135525;28;20024;-66
2022/04/08 10:05:25;;;;;;;5.22;2.90;;;8.90;69.90;;;;;;5135476;27;20091;-66
2022/04/08 10:07:53;;;;;;;7.22;3.80;;;9.00;70.10;;;;;;5134395;28;20062;-66
2022/04/08 10:10:23;;;;;;;7.53;2.63;;;9.00;70.20;;;;;;5135455;27;20099;-67
2022/04/08 10:12:55;;;;;;;9.65;5.22;;;8.90;67.40;;;;;;5135494;28;20085;-67
2022/04/08 10:15:31;;;;;;;9.93;5.40;;;9.00;67.20;;;;;;5135225;28;20028;-67
2022/04/08 10:18:05;;;;;;;5.50;2.03;;;9.00;68.00;;;;;;5135242;27;20023;-67
2022/04/08 10:20:33;;;;;;;7.18;3.03;;;9.10;67.80;;;;;;5135281;28;20065;-68
2022/04/08 10:23:11;;;;;;;7.28;2.65;;;9.10;68.30;;;;;;5135132;28;20031;-67
2022/04/08 10:25:39;;;;;;;8.98;2.65;;;9.20;68.60;;;;;;5135020;28;20027;-68
2022/04/08 10:28:06;;;;;;;7.07;2.45;;;9.20;67.40;;;;;;5134952;28;20079;-67
2022/04/08 10:30:43;;;;;;;6.95;2.70;;;9.10;67.70;;;;;;5134982;27;20041;-67
2022/04/08 10:33:11;;;;;;;6.72;2.50;;;9.20;66.60;;;;;;5134968;28;20115;-67
2022/04/08 10:35:37;;;;;;;5.80;3.03;;;9.20;66.90;;;;;;5134894;28;20024;-67
2022/04/08 10:38:07;;;;;;;7.38;3.00;;;9.10;67.50;;;;;;5134685;28;20047;-68
2022/04/08 10:40:34;;;;;;;4.32;2.13;;;9.20;67.50;;;;;;5134776;27;20027;-68
2022/04/08 10:43:02;;;;;;;7.50;2.58;;;9.30;67.80;;;;;;5134767;28;20020;-67
2022/04/08 10:45:29;;;;;;;7.30;2.65;;;9.30;67.10;;;;;;5134639;28;20016;-68
2022/04/08 10:47:59;;;;;;;7.20;2.40;;;9.30;65.60;;;;;;5134640;28;20012;-68
2022/04/08 10:50:34;;;;;;;5.85;2.47;;;9.30;64.60;;;;;;5134648;28;20019;-68
2022/04/08 10:53:05;;;;;;;4.75;2.60;;;9.20;66.30;;;;;;5134646;28;20468;-69
2022/04/08 10:55:30;;;;;;;7.38;2.90;;;9.20;66.70;;;;;;5134493;28;20020;-70
2022/04/08 10:58:00;;;;;;;5.15;2.92;;;9.10;64.90;;;;;;5134515;28;20051;-69
2022/04/08 11:00:25;;;;;;;6.20;3.22;;;9.20;67.20;;;;;;5134398;28;20016;-69
2022/04/08 11:02:54;;;;;;;7.35;3.00;;;9.20;67.10;;;;;;5133362;28;20031;-69
2022/04/08 11:05:23;;;;;;;6.50;2.53;;;9.30;65.80;;;;;;5134333;28;20503;-69
2022/04/08 11:07:53;;;;;;;7.82;2.67;;;9.20;65.40;;;;;;5133906;28;20057;-69
2022/04/08 11:10:20;;;;;;;7.25;2.70;;;9.20;66.30;;;;;;5134299;28;20020;-69
2022/04/08 11:12:51;;;;;;;7.82;2.50;;;9.20;66.70;;;;;;5134168;28;20026;-70
2022/04/08 11:15:19;;;;;;;6.85;3.00;;;9.20;66.20;;;;;;5134207;28;20468;-70
2022/04/08 11:17:48;;;;;;;7.65;3.03;;;9.30;65.80;;;;;;5134131;28;20034;-70
2022/04/08 11:20:16;;;;;;;6.63;2.70;;;9.30;64.80;;;;;;5134109;28;20043;-69
2022/04/08 11:22:43;;;;;;;7.82;3.28;;;9.20;65.40;;;;;;5134075;28;20024;-70
2022/04/08 11:25:10;;;;;;;10.27;3.42;;;9.20;65.90;;;;;;5134031;28;20024;-70
2022/04/08 11:27:36;;;;;;;8.30;3.30;;;9.20;66.30;;;;;;5133851;28;20043;-70
2022/04/08 11:30:07;;;;;;;7.38;2.65;;;9.30;66.40;;;;;;5134019;28;20019;-70
2022/04/08 11:32:33;;;;;;;7.15;2.95;;;9.30;65.90;;;;;;5134020;28;20020;-70
2022/04/08 11:35:09;;;;;;;4.50;2.50;;;9.30;65.60;;;;;;5133893;28;20054;-69
2022/04/08 11:37:34;;;;;;;5.88;2.80;;;9.30;64.70;;;;;;5133683;28;20043;-70
2022/04/08 11:40:02;;;;;;;9.23;3.22;;;9.30;65.60;;;;;;5133824;28;20050;-70
2022/04/08 11:42:28;;;;;;;7.75;2.70;;;9.40;66.10;;;;;;5132847;28;20500;-69
2022/04/08 11:44:54;;;;;;;7.40;3.25;;;9.40;65.70;;;;;;5133781;28;20032;-70
2022/04/08 11:47:30;;;;;;;6.53;3.38;;;9.40;66.10;;;;;;5133733;28;20024;-70
2022/04/08 11:50:04;;;;;;;4.43;3.25;;;9.40;65.60;;;;;;5133797;28;20023;-70
2022/04/08 11:52:30;;;;;;;8.68;3.00;;;9.40;64.00;;;;;;5133724;28;20468;-70
2022/04/08 11:55:03;;;;;;;6.43;3.00;;;9.40;64.70;;;;;;5133715;28;20020;-70
2022/04/08 11:57:30;;;;;;;12.05;3.28;;;9.50;65.20;;;;;;5133773;28;20044;-70
2022/04/08 11:59:57;;;;;;;6.05;3.60;;;9.50;66.60;;;;;;5133658;28;20030;-70
2022/04/08 12:02:22;;;;;;;7.63;3.40;;;9.60;65.90;;;;;;5133666;28;20024;-69
2022/04/08 12:04:50;;;;;;;6.18;3.25;;;9.60;65.20;;;;;;5133624;28;20049;-70
2022/04/08 12:07:24;;;;;;;8.45;4.18;;;9.70;65.70;;;;;;5133493;28;20032;-69
2022/04/08 12:09:52;;;;;;;9.23;3.58;;;9.80;65.30;;;;;;5133516;28;20028;-69
2022/04/08 12:12:31;;;;;;;6.20;3.88;;;9.70;62.60;;;;;;5133574;28;20024;-69
2022/04/08 12:15:09;;;;;;;8.20;4.38;;;9.70;64.10;;;;;;5133493;28;20027;-70
2022/04/08 12:17:43;;;;;;;8.60;3.30;;;9.80;63.80;;;;;;5133516;28;20039;-70
2022/04/08 12:20:19;;;;;;;4.65;2.80;;;9.80;64.90;;;;;;5134929;28;20031;-70
2022/04/08 12:22:46;;;;;;;4.90;2.92;;;9.80;61.80;;;;;;5137513;28;20079;-70
2022/04/08 12:25:12;;;;;;;9.10;3.05;;;9.80;63.70;;;;;;5137459;28;20019;-70
2022/04/08 12:27:38;;;;;;;9.18;3.20;;;9.80;63.20;;;;;;5137240;28;20055;-70
2022/04/08 12:30:09;;;;;;;5.07;2.97;;;9.90;63.80;;;;;;5137435;28;20031;-70
2022/04/08 12:32:39;;;;;;;7.15;3.60;;;9.90;63.80;;;;;;5137479;28;20042;-70
2022/04/08 12:35:08;;;;;;;7.03;3.17;;;9.80;63.80;;;;;;5137413;28;20071;-70
2022/04/08 12:37:34;;;;;;;5.43;3.08;;;9.90;63.90;;;;;;5137059;28;20055;-70
2022/04/08 12:40:00;;;;;;;6.22;3.00;;;9.90;63.10;;;;;;5137199;27;20019;-69
2022/04/08 12:42:26;;;;;;;8.93;4.00;;;9.90;63.30;;;;;;5137126;28;20051;-70
2022/04/08 12:44:52;;;;;;;5.30;3.78;;;9.90;64.30;;;;;;5137082;28;20093;-70
2022/04/08 12:47:18;;;;;;;8.88;3.85;;;9.90;64.00;;;;;;5136921;28;20027;-69
2022/04/08 12:49:43;;;;;;;10.80;3.95;;;9.90;63.80;;;;;;5136967;28;20038;-69
2022/04/08 12:52:09;;;;;;;6.88;4.10;;;9.90;64.10;;;;;;5136892;28;20028;-69
2022/04/08 12:54:34;;;;;;;9.18;4.40;;;9.90;63.50;;;;;;5136814;28;20026;-69